sensor_id;sensor_type;location;lat;lon;timestamp;temperature;humidity
35313;DHT22;21425;50.454;30.466;2022-11-20T00:02:24;-4.00;99.90
35313;DHT22;21425;50.454;30.466;2022-11-20T00:04:50;-4.20;99.90
35313;DHT22;21425;50.454;30.466;2022-11-20T00:07:15;-4.30;99.90
35313;DHT22;21425;50.454;30.466;2022-11-20T00:09:41;-4.30;99.90
35313;DHT22;21425;50.454;30.466;2022-11-20T00:12:06;-4.30;99.90
35313;DHT22;21425;50.454;30.466;2022-11-20T00:14:32;-4.40;99.90
35313;DHT22;21425;50.454;30.466;2022-11-20T00:16:58;-4.50;99.90
35313;DHT22;21425;50.454;30.466;2022-11-20T00:19:23;-4.50;99.90
35313;DHT22;21425;50.454;30.466;2022-11-20T00:21:49;-4.50;99.90
35313;DHT22;21425;50.454;30.466;2022-11-20T00:24:17;-4.60;99.90
35313;DHT22;21425;50.454;30.466;2022-11-20T00:26:42;-4.70;99.90
35313;DHT22;21425;50.454;30.466;2022-11-20T00:29:08;-4.80;99.90
35313;DHT22;21425;50.454;30.466;2022-11-20T00:31:35;-4.60;99.90
35313;DHT22;21425;50.454;30.466;2022-11-20T00:34:00;-4.50;99.90
35313;DHT22;21425;50.454;30.466;2022-11-20T00:36:28;-4.50;99.90
35313;DHT22;21425;50.454;30.466;2022-11-20T00:38:55;-4.40;99.90
35313;DHT22;21425;50.454;30.466;2022-11-20T00:41:22;-4.40;99.90
35313;DHT22;21425;50.454;30.466;2022-11-20T00:43:47;-4.40;99.90
35313;DHT22;21425;50.454;30.466;2022-11-20T00:46:15;-4.50;99.90
35313;DHT22;21425;50.454;30.466;2022-11-20T00:48:42;-4.40;99.90
35313;DHT22;21425;50.454;30.466;2022-11-20T00:51:08;-4.40;99.90
35313;DHT22;21425;50.454;30.466;2022-11-20T00:53:33;-4.40;99.90
35313;DHT22;21425;50.454;30.466;2022-11-20T00:56:01;-4.50;99.90
35313;DHT22;21425;50.454;30.466;2022-11-20T00:58:36;-4.60;99.90
35313;DHT22;21425;50.454;30.466;2022-11-20T01:01:07;-4.50;99.90
35313;DHT22;21425;50.454;30.466;2022-11-20T01:03:34;-4.40;99.90
35313;DHT22;21425;50.454;30.466;2022-11-20T01:06:02;-4.50;99.90
35313;DHT22;21425;50.454;30.466;2022-11-20T01:08:36;-4.40;99.90
35313;DHT22;21425;50.454;30.466;2022-11-20T01:11:04;-4.40;99.90
35313;DHT22;21425;50.454;30.466;2022-11-20T01:13:31;-3.60;99.90
35313;DHT22;21425;50.454;30.466;2022-11-20T01:16:22;-4.50;99.90
35313;DHT22;21425;50.454;30.466;2022-11-20T01:18:50;-4.40;99.90
35313;DHT22;21425;50.454;30.466;2022-11-20T01:21:25;-4.40;99.90
35313;DHT22;21425;50.454;30.466;2022-11-20T01:23:52;-4.50;99.90
35313;DHT22;21425;50.454;30.466;2022-11-20T01:26:20;-4.40;99.90
35313;DHT22;21425;50.454;30.466;2022-11-20T01:28:46;-4.30;99.90
35313;DHT22;21425;50.454;30.466;2022-11-20T01:33:58;-4.30;99.90
35313;DHT22;21425;50.454;30.466;2022-11-20T01:36:26;-4.30;99.90
35313;DHT22;21425;50.454;30.466;2022-11-20T01:38:56;-4.30;99.90
35313;DHT22;21425;50.454;30.466;2022-11-20T01:41:23;-4.20;99.90
35313;DHT22;21425;50.454;30.466;2022-11-20T01:44:11;-4.20;99.90
35313;DHT22;21425;50.454;30.466;2022-11-20T01:46:40;-4.10;99.90
35313;DHT22;21425;50.454;30.466;2022-11-20T01:49:08;-3.90;99.90
35313;DHT22;21425;50.454;30.466;2022-11-20T01:51:39;-4.00;99.90
35313;DHT22;21425;50.454;30.466;2022-11-20T01:54:11;-4.00;99.90
35313;DHT22;21425;50.454;30.466;2022-11-20T01:56:40;-3.90;99.90
35313;DHT22;21425;50.454;30.466;2022-11-20T01:59:09;-3.90;99.90
35313;DHT22;21425;50.454;30.466;2022-11-20T02:01:35;-4.00;99.90
35313;DHT22;21425;50.454;30.466;2022-11-20T02:04:01;-3.80;99.90
35313;DHT22;21425;50.454;30.466;2022-11-20T02:06:38;-3.60;99.90
35313;DHT22;21425;50.454;30.466;2022-11-20T02:09:05;-3.60;99.90
35313;DHT22;21425;50.454;30.466;2022-11-20T02:11:31;-3.50;99.90
35313;DHT22;21425;50.454;30.466;2022-11-20T02:13:57;-3.20;99.90
35313;DHT22;21425;50.454;30.466;2022-11-20T02:16:25;-3.30;99.90
35313;DHT22;21425;50.454;30.466;2022-11-20T02:18:54;-3.40;99.90
35313;DHT22;21425;50.454;30.466;2022-11-20T02:24:15;-3.40;99.90
35313;DHT22;21425;50.454;30.466;2022-11-20T02:27:06;-3.40;99.90
35313;DHT22;21425;50.454;30.466;2022-11-20T02:29:42;-3.30;99.90
35313;DHT22;21425;50.454;30.466;2022-11-20T02:32:23;-3.30;99.90
35313;DHT22;21425;50.454;30.466;2022-11-20T02:34:49;-3.40;99.90
35313;DHT22;21425;50.454;30.466;2022-11-20T02:37:15;-3.40;99.90
35313;DHT22;21425;50.454;30.466;2022-11-20T02:39:43;-3.50;99.90
35313;DHT22;21425;50.454;30.466;2022-11-20T02:42:09;-3.50;99.90
35313;DHT22;21425;50.454;30.466;2022-11-20T02:44:35;-3.50;99.90
35313;DHT22;21425;50.454;30.466;2022-11-20T02:47:00;-3.60;99.90
35313;DHT22;21425;50.454;30.466;2022-11-20T02:49:26;-3.60;99.90
35313;DHT22;21425;50.454;30.466;2022-11-20T02:51:51;-3.60;99.90
35313;DHT22;21425;50.454;30.466;2022-11-20T02:54:17;-3.60;99.90
35313;DHT22;21425;50.454;30.466;2022-11-20T02:56:43;-3.70;99.90
35313;DHT22;21425;50.454;30.466;2022-11-20T02:59:09;-3.60;99.90
35313;DHT22;21425;50.454;30.466;2022-11-20T03:01:34;-3.60;99.90
35313;DHT22;21425;50.454;30.466;2022-11-20T03:04:00;-3.60;99.90
35313;DHT22;21425;50.454;30.466;2022-11-20T03:06:25;-3.60;99.90
35313;DHT22;21425;50.454;30.466;2022-11-20T03:08:51;-3.40;99.90
35313;DHT22;21425;50.454;30.466;2022-11-20T03:11:16;-3.50;99.90
35313;DHT22;21425;50.454;30.466;2022-11-20T03:13:42;-3.50;99.90
35313;DHT22;21425;50.454;30.466;2022-11-20T03:16:16;-3.50;99.90
35313;DHT22;21425;50.454;30.466;2022-11-20T03:18:43;-3.60;99.90
35313;DHT22;21425;50.454;30.466;2022-11-20T03:21:09;-3.40;99.90
35313;DHT22;21425;50.454;30.466;2022-11-20T03:23:36;-3.50;99.90
35313;DHT22;21425;50.454;30.466;2022-11-20T03:28:33;-3.40;99.90
35313;DHT22;21425;50.454;30.466;2022-11-20T03:31:05;-3.30;99.90
35313;DHT22;21425;50.454;30.466;2022-11-20T03:33:31;-3.40;99.90
35313;DHT22;21425;50.454;30.466;2022-11-20T03:36:01;-3.40;99.90
35313;DHT22;21425;50.454;30.466;2022-11-20T03:38:29;-3.40;99.90
35313;DHT22;21425;50.454;30.466;2022-11-20T03:41:03;-3.30;99.90
35313;DHT22;21425;50.454;30.466;2022-11-20T03:43:29;-3.40;99.90
35313;DHT22;21425;50.454;30.466;2022-11-20T03:45:55;-3.40;99.90
35313;DHT22;21425;50.454;30.466;2022-11-20T03:48:21;-3.30;99.90
35313;DHT22;21425;50.454;30.466;2022-11-20T03:50:46;-3.50;99.90
35313;DHT22;21425;50.454;30.466;2022-11-20T03:53:13;-3.40;99.90
35313;DHT22;21425;50.454;30.466;2022-11-20T03:55:39;-3.30;99.90
35313;DHT22;21425;50.454;30.466;2022-11-20T03:58:04;-3.40;99.90
35313;DHT22;21425;50.454;30.466;2022-11-20T04:00:30;-3.60;99.90
35313;DHT22;21425;50.454;30.466;2022-11-20T04:02:59;-3.40;99.90
35313;DHT22;21425;50.454;30.466;2022-11-20T04:05:25;-3.40;99.90
35313;DHT22;21425;50.454;30.466;2022-11-20T04:07:50;-3.40;99.90
35313;DHT22;21425;50.454;30.466;2022-11-20T04:10:16;-3.30;99.90
35313;DHT22;21425;50.454;30.466;2022-11-20T04:12:41;-3.20;99.90
35313;DHT22;21425;50.454;30.466;2022-11-20T04:15:07;-3.30;99.90
35313;DHT22;21425;50.454;30.466;2022-11-20T04:17:33;-3.30;99.90
35313;DHT22;21425;50.454;30.466;2022-11-20T04:19:58;-3.30;99.90
35313;DHT22;21425;50.454;30.466;2022-11-20T04:22:24;-3.30;99.90
35313;DHT22;21425;50.454;30.466;2022-11-20T04:24:49;-3.30;99.90
35313;DHT22;21425;50.454;30.466;2022-11-20T04:27:15;-3.30;99.90
35313;DHT22;21425;50.454;30.466;2022-11-20T04:29:41;-3.30;99.90
35313;DHT22;21425;50.454;30.466;2022-11-20T04:32:06;-3.30;99.90
35313;DHT22;21425;50.454;30.466;2022-11-20T04:34:32;-3.30;99.90
35313;DHT22;21425;50.454;30.466;2022-11-20T04:36:57;-3.30;99.90
35313;DHT22;21425;50.454;30.466;2022-11-20T04:39:23;-3.30;99.90
35313;DHT22;21425;50.454;30.466;2022-11-20T04:41:49;-3.30;99.90
35313;DHT22;21425;50.454;30.466;2022-11-20T04:44:34;-3.30;99.90
35313;DHT22;21425;50.454;30.466;2022-11-20T04:47:00;-3.10;99.90
35313;DHT22;21425;50.454;30.466;2022-11-20T04:49:25;-3.30;99.90
35313;DHT22;21425;50.454;30.466;2022-11-20T04:51:53;-3.10;99.90
35313;DHT22;21425;50.454;30.466;2022-11-20T04:54:19;-3.10;99.90
35313;DHT22;21425;50.454;30.466;2022-11-20T04:56:47;-3.00;99.90
35313;DHT22;21425;50.454;30.466;2022-11-20T04:59:13;-3.00;99.90
35313;DHT22;21425;50.454;30.466;2022-11-20T05:01:38;-3.00;99.90
35313;DHT22;21425;50.454;30.466;2022-11-20T05:04:04;-3.10;99.90
35313;DHT22;21425;50.454;30.466;2022-11-20T05:06:31;-3.10;99.90
35313;DHT22;21425;50.454;30.466;2022-11-20T05:08:56;-3.10;99.90
35313;DHT22;21425;50.454;30.466;2022-11-20T05:11:22;-3.00;99.90
35313;DHT22;21425;50.454;30.466;2022-11-20T05:13:49;-3.10;99.90
35313;DHT22;21425;50.454;30.466;2022-11-20T05:16:21;-3.10;99.90
35313;DHT22;21425;50.454;30.466;2022-11-20T05:18:47;-3.00;99.90
35313;DHT22;21425;50.454;30.466;2022-11-20T05:21:13;-3.00;99.90
35313;DHT22;21425;50.454;30.466;2022-11-20T05:23:39;-3.00;99.90
35313;DHT22;21425;50.454;30.466;2022-11-20T05:26:07;-2.90;99.90
35313;DHT22;21425;50.454;30.466;2022-11-20T05:28:33;-2.90;99.90
35313;DHT22;21425;50.454;30.466;2022-11-20T05:31:11;-2.80;99.90
35313;DHT22;21425;50.454;30.466;2022-11-20T05:33:37;-2.70;99.90
35313;DHT22;21425;50.454;30.466;2022-11-20T05:36:05;-2.70;99.90
35313;DHT22;21425;50.454;30.466;2022-11-20T05:38:31;-2.70;99.90
35313;DHT22;21425;50.454;30.466;2022-11-20T05:41:24;-2.60;99.90
35313;DHT22;21425;50.454;30.466;2022-11-20T05:43:49;-2.50;99.90
35313;DHT22;21425;50.454;30.466;2022-11-20T05:46:18;-2.50;99.90
35313;DHT22;21425;50.454;30.466;2022-11-20T05:48:45;-2.40;99.90
35313;DHT22;21425;50.454;30.466;2022-11-20T05:51:13;-2.30;99.90
35313;DHT22;21425;50.454;30.466;2022-11-20T05:53:39;-2.30;99.90
35313;DHT22;21425;50.454;30.466;2022-11-20T05:56:16;-2.30;99.90
35313;DHT22;21425;50.454;30.466;2022-11-20T05:58:43;-2.20;99.90
35313;DHT22;21425;50.454;30.466;2022-11-20T06:01:20;-2.10;99.90
35313;DHT22;21425;50.454;30.466;2022-11-20T06:03:46;-2.00;99.90
35313;DHT22;21425;50.454;30.466;2022-11-20T06:06:14;-2.00;99.90
35313;DHT22;21425;50.454;30.466;2022-11-20T06:08:40;-1.80;99.90
35313;DHT22;21425;50.454;30.466;2022-11-20T06:11:07;-1.70;99.90
35313;DHT22;21425;50.454;30.466;2022-11-20T06:13:33;-1.70;99.90
35313;DHT22;21425;50.454;30.466;2022-11-20T06:15:59;-1.60;99.90
35313;DHT22;21425;50.454;30.466;2022-11-20T06:18:27;-1.60;99.90
35313;DHT22;21425;50.454;30.466;2022-11-20T06:21:06;-1.50;99.90
35313;DHT22;21425;50.454;30.466;2022-11-20T06:23:33;-1.40;99.90
35313;DHT22;21425;50.454;30.466;2022-11-20T06:26:11;-1.30;99.90
35313;DHT22;21425;50.454;30.466;2022-11-20T06:28:37;-1.20;99.90
35313;DHT22;21425;50.454;30.466;2022-11-20T06:31:03;-1.20;99.90
35313;DHT22;21425;50.454;30.466;2022-11-20T06:33:29;-1.20;99.90
35313;DHT22;21425;50.454;30.466;2022-11-20T06:35:59;-1.30;99.90
35313;DHT22;21425;50.454;30.466;2022-11-20T06:38:26;-1.30;99.90
35313;DHT22;21425;50.454;30.466;2022-11-20T06:40:52;-1.30;99.90
35313;DHT22;21425;50.454;30.466;2022-11-20T06:43:18;-1.30;99.90
35313;DHT22;21425;50.454;30.466;2022-11-20T06:45:43;-1.30;99.90
35313;DHT22;21425;50.454;30.466;2022-11-20T06:48:09;-1.30;99.90
35313;DHT22;21425;50.454;30.466;2022-11-20T06:50:36;-1.20;99.90
35313;DHT22;21425;50.454;30.466;2022-11-20T06:53:02;-1.20;99.90
35313;DHT22;21425;50.454;30.466;2022-11-20T06:55:29;-1.10;99.90
35313;DHT22;21425;50.454;30.466;2022-11-20T06:57:54;-1.00;99.90
35313;DHT22;21425;50.454;30.466;2022-11-20T07:00:20;-0.90;99.90
35313;DHT22;21425;50.454;30.466;2022-11-20T07:02:45;-0.90;99.90
35313;DHT22;21425;50.454;30.466;2022-11-20T07:05:11;-0.90;99.90
35313;DHT22;21425;50.454;30.466;2022-11-20T07:07:36;-0.90;99.90
35313;DHT22;21425;50.454;30.466;2022-11-20T07:10:02;-0.90;99.90
35313;DHT22;21425;50.454;30.466;2022-11-20T07:12:28;-0.90;99.90
35313;DHT22;21425;50.454;30.466;2022-11-20T10:30:42;0.40;99.90
35313;DHT22;21425;50.454;30.466;2022-11-20T10:33:17;0.30;99.90
35313;DHT22;21425;50.454;30.466;2022-11-20T10:35:45;0.40;99.90
35313;DHT22;21425;50.454;30.466;2022-11-20T10:41:06;0.70;99.90
35313;DHT22;21425;50.454;30.466;2022-11-20T10:46:25;0.70;99.90
35313;DHT22;21425;50.454;30.466;2022-11-20T10:48:51;0.60;99.90
35313;DHT22;21425;50.454;30.466;2022-11-20T10:54:06;0.40;99.90
35313;DHT22;21425;50.454;30.466;2022-11-20T10:56:46;0.30;99.90
35313;DHT22;21425;50.454;30.466;2022-11-20T11:02:19;0.20;99.90
35313;DHT22;21425;50.454;30.466;2022-11-20T11:04:48;0.40;99.90
35313;DHT22;21425;50.454;30.466;2022-11-20T11:07:41;0.30;99.90
35313;DHT22;21425;50.454;30.466;2022-11-20T11:12:58;0.30;99.90
35313;DHT22;21425;50.454;30.466;2022-11-20T11:15:40;0.30;99.90
35313;DHT22;21425;50.454;30.466;2022-11-20T11:18:10;0.10;99.90
35313;DHT22;21425;50.454;30.466;2022-11-20T11:20:36;-0.10;99.90
35313;DHT22;21425;50.454;30.466;2022-11-20T11:23:02;-0.20;99.90
35313;DHT22;21425;50.454;30.466;2022-11-20T11:25:33;-1.10;99.90
35313;DHT22;21425;50.454;30.466;2022-11-20T11:28:03;-0.10;99.90
35313;DHT22;21425;50.454;30.466;2022-11-20T11:30:30;2.50;99.90
35313;DHT22;21425;50.454;30.466;2022-11-20T11:33:09;0.00;99.90
35313;DHT22;21425;50.454;30.466;2022-11-20T11:35:46;-0.10;99.90
35313;DHT22;21425;50.454;30.466;2022-11-20T11:38:21;-0.20;99.90
35313;DHT22;21425;50.454;30.466;2022-11-20T11:40:47;-0.10;99.90
35313;DHT22;21425;50.454;30.466;2022-11-20T11:43:25;-0.20;99.90
35313;DHT22;21425;50.454;30.466;2022-11-20T11:46:32;-0.10;99.90
35313;DHT22;21425;50.454;30.466;2022-11-20T11:49:01;-0.20;99.90
35313;DHT22;21425;50.454;30.466;2022-11-20T11:51:34;2.20;99.90
35313;DHT22;21425;50.454;30.466;2022-11-20T11:54:10;-0.30;99.90
35313;DHT22;21425;50.454;30.466;2022-11-20T11:56:38;-0.30;99.90
35313;DHT22;21425;50.454;30.466;2022-11-20T11:59:06;-0.50;99.90
35313;DHT22;21425;50.454;30.466;2022-11-20T12:01:50;-0.30;99.90
35313;DHT22;21425;50.454;30.466;2022-11-20T12:04:37;-0.40;99.90
35313;DHT22;21425;50.454;30.466;2022-11-20T12:07:22;-0.40;99.90
35313;DHT22;21425;50.454;30.466;2022-11-20T12:09:54;-0.30;99.90
35313;DHT22;21425;50.454;30.466;2022-11-20T12:12:26;-0.40;99.90
35313;DHT22;21425;50.454;30.466;2022-11-20T12:14:54;-0.30;99.90
35313;DHT22;21425;50.454;30.466;2022-11-20T12:17:21;-0.40;99.90
35313;DHT22;21425;50.454;30.466;2022-11-20T12:19:46;-0.50;99.90
35313;DHT22;21425;50.454;30.466;2022-11-20T12:30:21;-0.80;99.90
35313;DHT22;21425;50.454;30.466;2022-11-20T12:53:05;-0.90;99.90
35313;DHT22;21425;50.454;30.466;2022-11-20T13:03:58;-0.80;99.90
35313;DHT22;21425;50.454;30.466;2022-11-20T13:06:32;-0.90;99.90
35313;DHT22;21425;50.454;30.466;2022-11-20T13:08:58;-0.90;99.90
35313;DHT22;21425;50.454;30.466;2022-11-20T13:14:40;-1.10;99.90
35313;DHT22;21425;50.454;30.466;2022-11-20T13:17:40;-1.00;99.90
35313;DHT22;21425;50.454;30.466;2022-11-20T13:20:15;-1.10;99.90
35313;DHT22;21425;50.454;30.466;2022-11-20T13:22:52;-1.00;99.90
35313;DHT22;21425;50.454;30.466;2022-11-20T13:25:30;-1.20;99.90
35313;DHT22;21425;50.454;30.466;2022-11-20T13:28:01;-1.20;99.90
35313;DHT22;21425;50.454;30.466;2022-11-20T13:30:29;-1.10;99.90
35313;DHT22;21425;50.454;30.466;2022-11-20T13:32:57;-1.20;99.90
35313;DHT22;21425;50.454;30.466;2022-11-20T13:35:35;-1.30;99.90
35313;DHT22;21425;50.454;30.466;2022-11-20T13:38:11;-1.20;99.90
35313;DHT22;21425;50.454;30.466;2022-11-20T13:40:58;-1.20;99.90
35313;DHT22;21425;50.454;30.466;2022-11-20T13:43:41;-1.30;99.90
35313;DHT22;21425;50.454;30.466;2022-11-20T13:46:09;-1.30;99.90
35313;DHT22;21425;50.454;30.466;2022-11-20T13:48:45;-1.30;99.90
35313;DHT22;21425;50.454;30.466;2022-11-20T13:51:29;-1.30;99.90
35313;DHT22;21425;50.454;30.466;2022-11-20T14:01:50;-1.30;99.90
35313;DHT22;21425;50.454;30.466;2022-11-20T14:04:19;-1.40;99.90
35313;DHT22;21425;50.454;30.466;2022-11-20T14:06:46;-1.30;99.90
35313;DHT22;21425;50.454;30.466;2022-11-20T14:09:26;-1.30;99.90
35313;DHT22;21425;50.454;30.466;2022-11-20T14:11:52;-1.30;99.90
35313;DHT22;21425;50.454;30.466;2022-11-20T14:14:20;-1.30;99.90
35313;DHT22;21425;50.454;30.466;2022-11-20T14:16:47;-1.40;99.90
35313;DHT22;21425;50.454;30.466;2022-11-20T14:19:25;-1.30;99.90
35313;DHT22;21425;50.454;30.466;2022-11-20T14:21:55;-1.30;99.90
35313;DHT22;21425;50.454;30.466;2022-11-20T14:24:31;-1.20;99.90
35313;DHT22;21425;50.454;30.466;2022-11-20T14:26:56;-1.20;99.90
35313;DHT22;21425;50.454;30.466;2022-11-20T14:29:28;-1.30;99.90
35313;DHT22;21425;50.454;30.466;2022-11-20T14:31:55;-1.30;99.90
35313;DHT22;21425;50.454;30.466;2022-11-20T14:34:24;-1.40;99.90
35313;DHT22;21425;50.454;30.466;2022-11-20T14:36:53;-1.20;99.90
35313;DHT22;21425;50.454;30.466;2022-11-20T14:39:22;-3.00;99.90
35313;DHT22;21425;50.454;30.466;2022-11-20T14:41:51;-1.30;99.90
35313;DHT22;21425;50.454;30.466;2022-11-20T14:44:17;-1.30;99.90
35313;DHT22;21425;50.454;30.466;2022-11-20T14:46:45;-1.40;99.90
35313;DHT22;21425;50.454;30.466;2022-11-20T14:49:11;-1.30;99.90
35313;DHT22;21425;50.454;30.466;2022-11-20T14:51:39;-1.30;99.90
35313;DHT22;21425;50.454;30.466;2022-11-20T14:56:41;-1.30;99.90
35313;DHT22;21425;50.454;30.466;2022-11-20T14:59:08;-1.30;99.90
35313;DHT22;21425;50.454;30.466;2022-11-20T15:01:34;-1.40;99.90
35313;DHT22;21425;50.454;30.466;2022-11-20T15:04:07;-1.40;99.90
35313;DHT22;21425;50.454;30.466;2022-11-20T15:06:34;-1.40;99.90
35313;DHT22;21425;50.454;30.466;2022-11-20T15:09:04;-1.40;99.90
35313;DHT22;21425;50.454;30.466;2022-11-20T15:11:34;-1.50;99.90
35313;DHT22;21425;50.454;30.466;2022-11-20T15:14:06;-1.40;99.90
35313;DHT22;21425;50.454;30.466;2022-11-20T15:16:32;-1.30;99.90
35313;DHT22;21425;50.454;30.466;2022-11-20T15:18:58;-1.50;99.90
35313;DHT22;21425;50.454;30.466;2022-11-20T15:21:24;-1.50;99.90
35313;DHT22;21425;50.454;30.466;2022-11-20T15:23:49;-1.50;99.90
35313;DHT22;21425;50.454;30.466;2022-11-20T15:26:29;-1.50;99.90
35313;DHT22;21425;50.454;30.466;2022-11-20T15:28:54;-1.50;99.90
35313;DHT22;21425;50.454;30.466;2022-11-20T15:31:23;-1.60;99.90
35313;DHT22;21425;50.454;30.466;2022-11-20T15:33:49;-1.60;99.90
35313;DHT22;21425;50.454;30.466;2022-11-20T15:36:15;-1.50;99.90
35313;DHT22;21425;50.454;30.466;2022-11-20T15:38:40;-1.50;99.90
35313;DHT22;21425;50.454;30.466;2022-11-20T15:41:07;-1.60;99.90
35313;DHT22;21425;50.454;30.466;2022-11-20T15:43:33;-1.60;99.90
35313;DHT22;21425;50.454;30.466;2022-11-20T15:46:00;0.80;99.90
35313;DHT22;21425;50.454;30.466;2022-11-20T15:48:29;-1.60;99.90
35313;DHT22;21425;50.454;30.466;2022-11-20T15:53:25;-1.40;99.90
35313;DHT22;21425;50.454;30.466;2022-11-20T15:55:50;-1.60;99.90
35313;DHT22;21425;50.454;30.466;2022-11-20T15:58:16;-1.50;99.90
35313;DHT22;21425;50.454;30.466;2022-11-20T16:00:44;-1.40;99.90
35313;DHT22;21425;50.454;30.466;2022-11-20T16:03:12;-1.50;99.90
35313;DHT22;21425;50.454;30.466;2022-11-20T16:05:39;-1.60;99.90
35313;DHT22;21425;50.454;30.466;2022-11-20T16:08:04;-0.70;99.90
35313;DHT22;21425;50.454;30.466;2022-11-20T16:10:30;-1.50;99.90
35313;DHT22;21425;50.454;30.466;2022-11-20T16:12:56;-1.50;99.90
35313;DHT22;21425;50.454;30.466;2022-11-20T16:15:40;-1.60;99.90
35313;DHT22;21425;50.454;30.466;2022-11-20T17:26:07;-2.00;99.90
35313;DHT22;21425;50.454;30.466;2022-11-20T17:28:34;-1.60;99.90
35313;DHT22;21425;50.454;30.466;2022-11-20T17:31:12;-1.60;99.90
35313;DHT22;21425;50.454;30.466;2022-11-20T17:33:40;-1.60;99.90
35313;DHT22;21425;50.454;30.466;2022-11-20T17:36:08;-1.60;99.90
35313;DHT22;21425;50.454;30.466;2022-11-20T17:38:34;-1.60;99.90
35313;DHT22;21425;50.454;30.466;2022-11-20T17:41:14;-1.50;99.90
35313;DHT22;21425;50.454;30.466;2022-11-20T17:43:41;-1.40;99.90
35313;DHT22;21425;50.454;30.466;2022-11-20T17:46:15;-1.60;99.90
35313;DHT22;21425;50.454;30.466;2022-11-20T17:48:42;-1.60;99.90
35313;DHT22;21425;50.454;30.466;2022-11-20T17:51:11;-1.50;99.90
35313;DHT22;21425;50.454;30.466;2022-11-20T17:53:38;-1.60;99.90
35313;DHT22;21425;50.454;30.466;2022-11-20T17:56:05;-1.60;99.90
35313;DHT22;21425;50.454;30.466;2022-11-20T17:58:49;-1.60;99.90
35313;DHT22;21425;50.454;30.466;2022-11-20T18:01:15;-1.50;99.90
35313;DHT22;21425;50.454;30.466;2022-11-20T18:03:41;-1.60;99.90
35313;DHT22;21425;50.454;30.466;2022-11-20T18:06:17;-1.50;99.90
35313;DHT22;21425;50.454;30.466;2022-11-20T18:08:44;-1.60;99.90
35313;DHT22;21425;50.454;30.466;2022-11-20T18:11:16;0.50;99.90
35313;DHT22;21425;50.454;30.466;2022-11-20T18:13:44;-1.50;99.90
35313;DHT22;21425;50.454;30.466;2022-11-20T18:16:30;-1.50;99.90
35313;DHT22;21425;50.454;30.466;2022-11-20T18:18:57;-1.50;99.90
35313;DHT22;21425;50.454;30.466;2022-11-20T18:21:24;-1.50;99.90
35313;DHT22;21425;50.454;30.466;2022-11-20T18:23:50;-1.40;99.90
35313;DHT22;21425;50.454;30.466;2022-11-20T18:26:17;-1.50;99.90
35313;DHT22;21425;50.454;30.466;2022-11-20T18:28:43;-1.50;99.90
35313;DHT22;21425;50.454;30.466;2022-11-20T18:31:09;-1.50;99.90
35313;DHT22;21425;50.454;30.466;2022-11-20T18:33:35;-1.40;99.90
35313;DHT22;21425;50.454;30.466;2022-11-20T18:36:15;-1.40;99.90
35313;DHT22;21425;50.454;30.466;2022-11-20T18:38:42;-1.50;99.90
35313;DHT22;21425;50.454;30.466;2022-11-20T18:41:12;-1.40;99.90
35313;DHT22;21425;50.454;30.466;2022-11-20T18:43:59;-1.40;99.90
35313;DHT22;21425;50.454;30.466;2022-11-20T18:46:43;-1.20;99.90
35313;DHT22;21425;50.454;30.466;2022-11-20T18:49:09;-1.40;99.90
35313;DHT22;21425;50.454;30.466;2022-11-20T18:51:36;-1.30;99.90
35313;DHT22;21425;50.454;30.466;2022-11-20T18:54:03;-1.40;99.90
35313;DHT22;21425;50.454;30.466;2022-11-20T18:56:29;-1.40;99.90
35313;DHT22;21425;50.454;30.466;2022-11-20T18:58:54;-1.50;99.90
35313;DHT22;21425;50.454;30.466;2022-11-20T19:01:20;-1.40;99.90
35313;DHT22;21425;50.454;30.466;2022-11-20T19:03:46;-1.40;99.90
35313;DHT22;21425;50.454;30.466;2022-11-20T19:06:12;-1.40;99.90
35313;DHT22;21425;50.454;30.466;2022-11-20T19:08:39;-1.40;99.90
35313;DHT22;21425;50.454;30.466;2022-11-20T19:11:06;-1.40;99.90
35313;DHT22;21425;50.454;30.466;2022-11-20T19:13:32;-1.40;99.90
35313;DHT22;21425;50.454;30.466;2022-11-20T19:16:08;-1.30;99.90
35313;DHT22;21425;50.454;30.466;2022-11-20T19:18:37;-1.40;99.90
35313;DHT22;21425;50.454;30.466;2022-11-20T19:21:11;-1.40;99.90
35313;DHT22;21425;50.454;30.466;2022-11-20T19:23:36;-1.40;99.90
35313;DHT22;21425;50.454;30.466;2022-11-20T19:26:03;-1.40;99.90
35313;DHT22;21425;50.454;30.466;2022-11-20T19:28:33;-1.40;99.90
35313;DHT22;21425;50.454;30.466;2022-11-20T19:31:31;-1.40;99.90
35313;DHT22;21425;50.454;30.466;2022-11-20T19:34:00;-1.50;99.90
35313;DHT22;21425;50.454;30.466;2022-11-20T19:36:29;-1.40;99.90
35313;DHT22;21425;50.454;30.466;2022-11-20T19:38:55;-1.40;99.90
35313;DHT22;21425;50.454;30.466;2022-11-20T19:41:23;-1.40;99.90
35313;DHT22;21425;50.454;30.466;2022-11-20T19:43:56;-1.60;99.90
35313;DHT22;21425;50.454;30.466;2022-11-20T19:46:24;-1.30;99.90
35313;DHT22;21425;50.454;30.466;2022-11-20T19:48:50;-1.50;99.90
35313;DHT22;21425;50.454;30.466;2022-11-20T19:51:18;-1.40;99.90
35313;DHT22;21425;50.454;30.466;2022-11-20T19:53:45;-1.50;99.90
35313;DHT22;21425;50.454;30.466;2022-11-20T19:56:11;-1.50;99.90
35313;DHT22;21425;50.454;30.466;2022-11-20T19:58:37;-1.40;99.90
35313;DHT22;21425;50.454;30.466;2022-11-20T20:01:11;-1.40;99.90
35313;DHT22;21425;50.454;30.466;2022-11-20T20:03:38;-1.40;99.90
35313;DHT22;21425;50.454;30.466;2022-11-20T20:06:09;-1.40;99.90
35313;DHT22;21425;50.454;30.466;2022-11-20T20:08:36;-1.50;99.90
35313;DHT22;21425;50.454;30.466;2022-11-20T20:11:18;-1.30;99.90
35313;DHT22;21425;50.454;30.466;2022-11-20T20:13:45;-1.40;99.90
35313;DHT22;21425;50.454;30.466;2022-11-20T20:16:15;-1.40;99.90
35313;DHT22;21425;50.454;30.466;2022-11-20T20:18:41;-1.30;99.90
35313;DHT22;21425;50.454;30.466;2022-11-20T20:21:12;-1.20;99.90
35313;DHT22;21425;50.454;30.466;2022-11-20T20:23:38;-1.30;99.90
35313;DHT22;21425;50.454;30.466;2022-11-20T20:26:06;-1.30;99.90
35313;DHT22;21425;50.454;30.466;2022-11-20T20:28:32;-1.40;99.90
35313;DHT22;21425;50.454;30.466;2022-11-20T20:31:08;-1.20;99.90
35313;DHT22;21425;50.454;30.466;2022-11-20T20:33:39;-1.30;99.90
35313;DHT22;21425;50.454;30.466;2022-11-20T20:36:06;-1.20;99.90
35313;DHT22;21425;50.454;30.466;2022-11-20T20:38:32;-1.30;99.90
35313;DHT22;21425;50.454;30.466;2022-11-20T20:40:58;-1.30;99.90
35313;DHT22;21425;50.454;30.466;2022-11-20T20:43:24;-1.10;99.90
35313;DHT22;21425;50.454;30.466;2022-11-20T20:45:50;-1.20;99.90
35313;DHT22;21425;50.454;30.466;2022-11-20T20:48:18;-1.30;99.90
35313;DHT22;21425;50.454;30.466;2022-11-20T20:50:58;-1.30;99.90
35313;DHT22;21425;50.454;30.466;2022-11-20T20:53:26;-1.10;99.90
35313;DHT22;21425;50.454;30.466;2022-11-20T20:55:56;-1.10;99.90
35313;DHT22;21425;50.454;30.466;2022-11-20T20:58:22;-1.30;99.90
35313;DHT22;21425;50.454;30.466;2022-11-20T21:00:47;-1.20;99.90
35313;DHT22;21425;50.454;30.466;2022-11-20T21:03:13;-1.30;99.90
35313;DHT22;21425;50.454;30.466;2022-11-20T21:05:39;-1.30;99.90
35313;DHT22;21425;50.454;30.466;2022-11-20T21:08:04;-1.30;99.90
35313;DHT22;21425;50.454;30.466;2022-11-20T21:10:49;-1.30;99.90